Pilot No 5 — WDC3840 — position and weather

sailwx.info

Track history (hours):
 
Tides and Currents Weather Stations Pressure Air Temp Water Temp Dewpoint Dewpoint Depression Visibility Wind Speed Wind Dir Waves Ship Positions

Pilot No 5

Owner: P E P INC, FT LAUDERDALE, FL. More information available from US FCC via Universal Licensing System and Coast Guard Vessel Documentation Center.

Last reported at 2017-Nov-18 06:30 UTC. Time now 2017-Nov-18 06:55 UTC.
Position N 26°06' W 080°07'.

Length 6 m.

Type: Pilot. MMSI: 367015090.

Date/timePositionNaut miles runAvg speedWind from/ knotsBaromVisibWave heightAir tempDewpointWater temp
2017-Nov-18 06:30N 26°06' W 080°07'0 0.9
2017-Nov-18 06:00N 26°05' W 080°07'1 2.0
2017-Nov-18 05:30N 26°06' W 080°06'1 0.9
2017-Nov-18 04:10N 26°06' W 080°07'0 2.7
2017-Nov-18 04:00N 26°06' W 080°07'0 0.1
2017-Nov-17 22:45N 26°06' W 080°07'2 9.6
2017-Nov-17 22:30N 26°05' W 080°05'1 1.6
2017-Nov-17 22:00N 26°05' W 080°05'1 3.0
2017-Nov-17 21:30N 26°06' W 080°07'0 0.1
2017-Nov-17 21:00N 26°06' W 080°07'0 0.5
2017-Nov-17 20:11N 26°06' W 080°07'1 3.3
2017-Nov-17 20:00N 26°05' W 080°07'0 0.6
2017-Nov-17 19:30N 26°05' W 080°07'4 7.0
2017-Nov-17 19:00N 26°06' W 080°03'3 6.9
2017-Nov-17 18:30N 26°05' W 080°07'0 0.5
2017-Nov-17 18:00N 26°05' W 080°07'0 0.3
2017-Nov-17 17:30N 26°05' W 080°07'3 5.4
2017-Nov-17 17:00N 26°05' W 080°04'2 5.0
2017-Nov-17 16:30N 26°05' W 080°07'1 1.7
2017-Nov-17 15:56N 26°06' W 080°07'4 8.9
2017-Nov-17 15:30N 26°04' W 080°03'4 7.6
2017-Nov-17 15:00N 26°06' W 080°07'4 7.4
2017-Nov-17 14:31N 26°06' W 080°03'4 7.0
2017-Nov-17 14:00N 26°04' W 080°07'1 2.0
2017-Nov-17 13:30N 26°05' W 080°07'1 1.5
2017-Nov-17 13:00N 26°06' W 080°06'1 2.0
2017-Nov-17 12:30N 26°06' W 080°07'3 6.3
2017-Nov-17 12:00N 26°05' W 080°04'3 5.4
2017-Nov-17 11:30N 26°05' W 080°07'612.7
2017-Nov-17 11:00N 26°05' W 080°00'510.1
2017-Nov-17 10:30N 26°06' W 080°06'1 2.6
2017-Nov-17 10:00N 26°05' W 080°07'1 1.3
2017-Nov-17 09:30N 26°04' W 080°07'4 7.3
2017-Nov-17 09:00N 26°05' W 080°03'4 7.0
2017-Nov-17 08:30N 26°05' W 080°07'0 0.1
2017-Nov-17 08:00N 26°05' W 080°07'1 1.4
2017-Nov-17 07:30N 26°05' W 080°07'0 0.3
2017-Nov-17 07:00N 26°05' W 080°07'0 0.7
2017-Nov-17 06:30N 26°06' W 080°07'1 1.2
2017-Nov-17 06:00N 26°05' W 080°07'1 0.4
2017-Nov-17 03:21N 26°06' W 080°07'1 4.0
2017-Nov-17 03:00N 26°06' W 080°06'1 2.1
2017-Nov-17 02:30N 26°06' W 080°07'3 5.3
2017-Nov-17 02:00N 26°05' W 080°04'2 4.7
2017-Nov-17 01:30N 26°06' W 080°07'0 0.3
2017-Nov-17 01:00N 26°06' W 080°07'2 3.1
2017-Nov-17 00:30N 26°04' W 080°07'1 2.4
2017-Nov-17 00:00N 26°05' W 080°07'1 1.3
2017-Nov-16 23:10N 26°06' W 080°07'1 3.9
2017-Nov-16 23:00N 26°06' W 080°07'2 3.4
2017-Nov-16 22:30N 26°04' W 080°07'1 2.5
2017-Nov-16 22:00N 26°05' W 080°07'3 5.3
2017-Nov-16 21:30N 26°05' W 080°04'3 5.5
2017-Nov-16 21:00N 26°06' W 080°07'1 1.1
2017-Nov-16 20:23N 26°06' W 080°07'1 3.7
2017-Nov-16 20:00N 26°06' W 080°06'0 0.2
2017-Nov-16 19:30N 26°06' W 080°06'0 0.1
2017-Nov-16 19:00N 26°05' W 080°06'1 2.1
2017-Nov-16 18:30N 26°05' W 080°07'0 0.5
2017-Nov-16 18:00N 26°06' W 080°07'0 0.6
2017-Nov-16 17:30N 26°05' W 080°07'0 0.2
2017-Nov-16 17:00N 26°05' W 080°07'0 0.2
2017-Nov-16 16:30N 26°05' W 080°07'5 9.9
2017-Nov-16 16:00N 26°05' W 080°02'5 2.0
2017-Nov-16 13:26N 26°06' W 080°07'0 1.1
2017-Nov-16 13:00N 26°06' W 080°07'0 0.2
2017-Nov-16 10:28N 26°06' W 080°07'510.6
2017-Nov-16 10:00N 26°05' W 080°02'5 9.3
2017-Nov-16 09:30N 26°04' W 080°07'1 1.9
2017-Nov-16 09:00N 26°05' W 080°07'4 8.0
2017-Nov-16 08:30N 26°06' W 080°02'4 8.3
2017-Nov-16 08:00N 26°04' W 080°07'1 2.4
2017-Nov-16 07:30N 26°06' W 080°07'3 5.9
2017-Nov-16 07:01N 26°05' W 080°04'2 3.1
2017-Nov-16 06:30N 26°05' W 080°06'1 2.7
2017-Nov-16 06:00N 26°05' W 080°07'0 0.9
2017-Nov-16 05:30N 26°05' W 080°07'0 0.8
2017-Nov-16 05:00N 26°05' W 080°07'1 2.0
2017-Nov-16 04:30N 26°06' W 080°06'1 1.2
2017-Nov-16 03:27N 26°06' W 080°07'2 4.2
2017-Nov-16 03:00N 26°06' W 080°05'1 3.0
2017-Nov-16 02:30N 26°05' W 080°07'1 0.6
2017-Nov-16 01:19N 26°06' W 080°07'310.2
2017-Nov-16 01:00N 26°05' W 080°04'3 5.5
2017-Nov-16 00:30N 26°06' W 080°07'2 3.3
2017-Nov-16 00:00N 26°05' W 080°05'1 1.3
2017-Nov-15 23:30N 26°06' W 080°06'2 3.3
2017-Nov-15 23:00N 26°04' W 080°07'2 3.3
2017-Nov-15 22:30N 26°06' W 080°06'1 2.2
2017-Nov-15 22:00N 26°05' W 080°07'0 0.4
2017-Nov-15 21:30N 26°05' W 080°07'1 0.4
2017-Nov-15 19:18N 26°06' W 080°07'1 4.0
2017-Nov-15 19:00N 26°06' W 080°06'1 1.6
2017-Nov-15 18:30N 26°05' W 080°07'3 7.1
2017-Nov-15 18:01N 26°05' W 080°03'4 6.9
2017-Nov-15 17:30N 26°04' W 080°07'1 1.8
2017-Nov-15 17:00N 26°05' W 080°07'2 4.3
2017-Nov-15 16:30N 26°06' W 080°05'3 5.4
2017-Nov-15 16:01N 26°05' W 080°02'5 9.3
2017-Nov-15 15:30N 26°04' W 080°07'0 0.7
2017-Nov-15 15:00N 26°04' W 080°07'1 2.8
2017-Nov-15 14:30N 26°05' W 080°07'1 0.4
2017-Nov-15 12:17N 26°06' W 080°07'413.2
2017-Nov-15 12:00N 26°05' W 080°03'3 6.6
2017-Nov-15 11:31N 26°04' W 080°07'4 7.3
2017-Nov-15 11:00N 26°06' W 080°03'1 1.4
2017-Nov-15 10:30N 26°05' W 080°03'1 1.5
2017-Nov-15 10:00N 26°06' W 080°02'3 6.6
2017-Nov-15 09:31N 26°06' W 080°05'0 0.1
2017-Nov-15 09:00N 26°06' W 080°05'2 4.5
2017-Nov-15 08:30N 26°06' W 080°03'4 7.4
2017-Nov-15 08:00N 26°04' W 080°07'1 2.2
2017-Nov-15 07:30N 26°05' W 080°07'2 3.1
2017-Nov-15 07:00N 26°06' W 080°05'2 3.7
2017-Nov-15 06:30N 26°04' W 080°07'2 3.4
2017-Nov-15 06:00N 26°06' W 080°07'1 1.8
2017-Nov-15 05:30N 26°06' W 080°06'1 0.7
2017-Nov-15 04:31N 26°06' W 080°07'0 9.0
2017-Nov-15 04:30N 26°06' W 080°07'0 0.2
2017-Nov-15 04:00N 26°06' W 080°07'1 2.2
2017-Nov-15 03:30N 26°05' W 080°06'2 3.1
2017-Nov-15 02:59N 26°06' W 080°07'2 4.5
2017-Nov-15 02:30N 26°06' W 080°05'2 4.4
2017-Nov-15 02:00N 26°06' W 080°07'3 6.0
2017-Nov-15 01:31N 26°06' W 080°04'3 5.7
2017-Nov-15 01:00N 26°04' W 080°07'2 4.8
2017-Nov-15 00:30N 26°05' W 080°04'2 3.7
2017-Nov-15 00:00N 26°06' W 080°06'1 2.7
2017-Nov-14 23:30N 26°04' W 080°07'1 2.9
2017-Nov-14 23:00N 26°06' W 080°07'0 0.4
2017-Nov-14 22:30N 26°06' W 080°07'4 7.7
2017-Nov-14 22:00N 26°05' W 080°03'4 7.2
2017-Nov-14 21:30N 26°05' W 080°07'1 0.1
2017-Nov-14 13:23N 26°06' W 080°07'2 4.4
2017-Nov-14 13:01N 26°06' W 080°06'2 2.8
2017-Nov-14 12:26N 26°06' W 080°07'1 1.5
2017-Nov-14 12:01N 26°06' W 080°07'0 0.6
2017-Nov-14 11:31N 26°06' W 080°07'3 6.2
2017-Nov-14 11:00N 26°04' W 080°04'3 5.2
2017-Nov-14 10:30N 26°05' W 080°07'1 1.2
2017-Nov-14 10:00N 26°06' W 080°06'4 7.3
2017-Nov-14 09:30N 26°05' W 080°02'4 8.0
2017-Nov-14 09:00N 26°05' W 080°07'1 0.5
2017-Nov-14 06:25N 26°06' W 080°07'1 1.9
2017-Nov-14 06:00N 26°06' W 080°07'0 0.4
2017-Nov-14 05:30N 26°05' W 080°07'1 2.8
2017-Nov-14 05:00N 26°06' W 080°05'0 0.6
2017-Nov-14 04:30N 26°05' W 080°05'2 3.3
2017-Nov-14 04:00N 26°06' W 080°07'0 0.4
2017-Nov-14 03:30N 26°05' W 080°07'0 0.2
2017-Nov-14 03:00N 26°05' W 080°07'1 1.1
2017-Nov-14 02:30N 26°06' W 080°07'1 2.9
2017-Nov-14 02:01N 26°06' W 080°06'1 2.7
2017-Nov-14 01:30N 26°05' W 080°07'0 0.5
2017-Nov-14 01:00N 26°06' W 080°07'1 1.9
2017-Nov-14 00:30N 26°06' W 080°06'1 1.6
2017-Nov-14 00:00N 26°06' W 080°07'0 0.8
2017-Nov-13 23:30N 26°06' W 080°07'2 3.8
2017-Nov-13 23:00N 26°06' W 080°05'0 0.4
2017-Nov-13 22:30N 26°05' W 080°05'2 3.5
2017-Nov-13 22:01N 26°05' W 080°07'1 0.0
2017-Nov-12 22:35N 26°06' W 080°07'0 3.9
2017-Nov-12 22:30N 26°06' W 080°07'1 2.0
2017-Nov-12 22:00N 26°06' W 080°06'0 0.4
2017-Nov-12 21:31N 26°06' W 080°06'1 1.6
2017-Nov-12 21:01N 26°05' W 080°07'1 0.9
2017-Nov-12 19:29N 26°06' W 080°07'2 3.5
2017-Nov-12 19:01N 26°06' W 080°06'1 2.5
2017-Nov-12 18:30N 26°05' W 080°07'2 4.7
2017-Nov-12 18:01N 26°05' W 080°04'2 4.6
2017-Nov-12 17:30N 26°05' W 080°07'1 1.8
2017-Nov-12 17:00N 26°05' W 080°07'1 1.9
2017-Nov-12 16:30N 26°06' W 080°07'2 4.9
2017-Nov-12 16:00N 26°06' W 080°04'3 5.7
2017-Nov-12 15:31N 26°04' W 080°07'2 0.9
2017-Nov-12 13:31N 26°06' W 080°07'0 7.1
2017-Nov-12 13:31N 26°06' W 080°07'1 2.0
2017-Nov-12 13:00N 26°06' W 080°06'1 1.9
2017-Nov-12 12:30N 26°05' W 080°07'1 1.7
2017-Nov-12 12:00N 26°06' W 080°07'1 0.4
2017-Nov-12 10:45N 26°06' W 080°07'1 3.3
2017-Nov-12 10:30N 26°05' W 080°07'2 3.2
2017-Nov-12 10:00N 26°06' W 080°05'3 5.6
2017-Nov-12 09:30N 26°05' W 080°02'5 8.9
2017-Nov-12 09:00N 26°06' W 080°07'0 0.3
2017-Nov-12 07:35N 26°06' W 080°07'1 6.5
2017-Nov-12 07:30N 26°06' W 080°07'0 0.8
2017-Nov-12 07:00N 26°05' W 080°07'0 0.1
2017-Nov-12 06:30N 26°05' W 080°07'0 0.1
2017-Nov-12 06:00N 26°05' W 080°07'1 1.5
2017-Nov-12 05:30N 26°05' W 080°07'4 7.3
2017-Nov-12 05:00N 26°06' W 080°03'4 7.2
2017-Nov-12 04:30N 26°06' W 080°07'1 1.1
2017-Nov-12 03:58N 26°06' W 080°07'3 7.0
2017-Nov-12 03:30N 26°05' W 080°04'1 2.8
2017-Nov-12 03:00N 26°05' W 080°02'4 8.2
2017-Nov-12 02:30N 26°05' W 080°07'0 0.8
2017-Nov-12 02:00N 26°05' W 080°07'1 2.5
2017-Nov-12 01:30N 26°05' W 080°06'1 2.4
2017-Nov-12 01:01N 26°05' W 080°07'1 1.6
2017-Nov-12 00:30N 26°06' W 080°07'1 2.0
2017-Nov-12 00:00N 26°05' W 080°07'0 0.3
2017-Nov-11 23:30N 26°05' W 080°07'0 0.3
2017-Nov-11 23:00N 26°05' W 080°07'0 0.9
2017-Nov-11 22:30N 26°06' W 080°07'0 0.6
2017-Nov-11 22:00N 26°06' W 080°07'0 0.5
2017-Nov-11 21:30N 26°05' W 080°07'0 0.8
2017-Nov-11 21:00N 26°06' W 080°07'0 0.1
2017-Nov-11 12:29N 26°06' W 080°07'4 8.4
2017-Nov-11 12:00N 26°06' W 080°03'4 8.1
2017-Nov-11 11:30N 26°04' W 080°07'3 6.0
2017-Nov-11 11:00N 26°05' W 080°04'1 3.0
2017-Nov-11 10:30N 26°06' W 080°06'1 2.7
2017-Nov-11 10:00N 26°05' W 080°07'4 7.3
2017-Nov-11 09:30N 26°05' W 080°03'4 6.9
2017-Nov-11 08:59N 26°05' W 080°07'1 0.5
2017-Nov-11 06:44N 26°06' W 080°07'3 7.1
2017-Nov-11 06:15N 26°05' W 080°04'2 9.5
2017-Nov-11 06:00N 26°06' W 080°06'1 1.6
2017-Nov-11 05:30N 26°05' W 080°07'1 1.2
2017-Nov-11 05:00N 26°06' W 080°07'0 0.9
2017-Nov-11 04:30N 26°06' W 080°07'  
Track history (hours):
 
Tides and Currents Weather Stations Pressure Air Temp Water Temp Dewpoint Dewpoint Depression Visibility Wind Speed Wind Dir Waves Ship Positions

Pilot No 5

Owner: P E P INC, FT LAUDERDALE, FL. More information available from US FCC via Universal Licensing System and Coast Guard Vessel Documentation Center.

Last reported at 2017-Nov-18 06:30 UTC. Time now 2017-Nov-18 06:55 UTC.
Position N 26°06' W 080°07'.

Length 6 m.

Type: Pilot. MMSI: 367015090.

Date/timePositionNaut miles runAvg speedWind from/ knotsBaromVisibWave heightAir tempDewpointWater temp
2017-Nov-18 06:30N 26°06' W 080°07'0 0.9
2017-Nov-18 06:00N 26°05' W 080°07'1 2.0
2017-Nov-18 05:30N 26°06' W 080°06'1 0.9
2017-Nov-18 04:10N 26°06' W 080°07'0 2.7
2017-Nov-18 04:00N 26°06' W 080°07'0 0.1
2017-Nov-17 22:45N 26°06' W 080°07'2 9.6
2017-Nov-17 22:30N 26°05' W 080°05'1 1.6
2017-Nov-17 22:00N 26°05' W 080°05'1 3.0
2017-Nov-17 21:30N 26°06' W 080°07'0 0.1
2017-Nov-17 21:00N 26°06' W 080°07'0 0.5
2017-Nov-17 20:11N 26°06' W 080°07'1 3.3
2017-Nov-17 20:00N 26°05' W 080°07'0 0.6
2017-Nov-17 19:30N 26°05' W 080°07'4 7.0
2017-Nov-17 19:00N 26°06' W 080°03'3 6.9
2017-Nov-17 18:30N 26°05' W 080°07'0 0.5
2017-Nov-17 18:00N 26°05' W 080°07'0 0.3
2017-Nov-17 17:30N 26°05' W 080°07'3 5.4
2017-Nov-17 17:00N 26°05' W 080°04'2 5.0
2017-Nov-17 16:30N 26°05' W 080°07'1 1.7
2017-Nov-17 15:56N 26°06' W 080°07'4 8.9
2017-Nov-17 15:30N 26°04' W 080°03'4 7.6
2017-Nov-17 15:00N 26°06' W 080°07'4 7.4
2017-Nov-17 14:31N 26°06' W 080°03'4 7.0
2017-Nov-17 14:00N 26°04' W 080°07'1 2.0
2017-Nov-17 13:30N 26°05' W 080°07'1 1.5
2017-Nov-17 13:00N 26°06' W 080°06'1 2.0
2017-Nov-17 12:30N 26°06' W 080°07'3 6.3
2017-Nov-17 12:00N 26°05' W 080°04'3 5.4
2017-Nov-17 11:30N 26°05' W 080°07'612.7
2017-Nov-17 11:00N 26°05' W 080°00'510.1
2017-Nov-17 10:30N 26°06' W 080°06'1 2.6
2017-Nov-17 10:00N 26°05' W 080°07'1 1.3
2017-Nov-17 09:30N 26°04' W 080°07'4 7.3
2017-Nov-17 09:00N 26°05' W 080°03'4 7.0
2017-Nov-17 08:30N 26°05' W 080°07'0 0.1
2017-Nov-17 08:00N 26°05' W 080°07'1 1.4
2017-Nov-17 07:30N 26°05' W 080°07'0 0.3
2017-Nov-17 07:00N 26°05' W 080°07'0 0.7
2017-Nov-17 06:30N 26°06' W 080°07'1 1.2
2017-Nov-17 06:00N 26°05' W 080°07'1 0.4
2017-Nov-17 03:21N 26°06' W 080°07'1 4.0
2017-Nov-17 03:00N 26°06' W 080°06'1 2.1
2017-Nov-17 02:30N 26°06' W 080°07'3 5.3
2017-Nov-17 02:00N 26°05' W 080°04'2 4.7
2017-Nov-17 01:30N 26°06' W 080°07'0 0.3
2017-Nov-17 01:00N 26°06' W 080°07'2 3.1
2017-Nov-17 00:30N 26°04' W 080°07'1 2.4
2017-Nov-17 00:00N 26°05' W 080°07'1 1.3
2017-Nov-16 23:10N 26°06' W 080°07'1 3.9
2017-Nov-16 23:00N 26°06' W 080°07'2 3.4
2017-Nov-16 22:30N 26°04' W 080°07'1 2.5
2017-Nov-16 22:00N 26°05' W 080°07'3 5.3
2017-Nov-16 21:30N 26°05' W 080°04'3 5.5
2017-Nov-16 21:00N 26°06' W 080°07'1 1.1
2017-Nov-16 20:23N 26°06' W 080°07'1 3.7
2017-Nov-16 20:00N 26°06' W 080°06'0 0.2
2017-Nov-16 19:30N 26°06' W 080°06'0 0.1
2017-Nov-16 19:00N 26°05' W 080°06'1 2.1
2017-Nov-16 18:30N 26°05' W 080°07'0 0.5
2017-Nov-16 18:00N 26°06' W 080°07'0 0.6
2017-Nov-16 17:30N 26°05' W 080°07'0 0.2
2017-Nov-16 17:00N 26°05' W 080°07'0 0.2
2017-Nov-16 16:30N 26°05' W 080°07'5 9.9
2017-Nov-16 16:00N 26°05' W 080°02'5 2.0
2017-Nov-16 13:26N 26°06' W 080°07'0 1.1
2017-Nov-16 13:00N 26°06' W 080°07'0 0.2
2017-Nov-16 10:28N 26°06' W 080°07'510.6
2017-Nov-16 10:00N 26°05' W 080°02'5 9.3
2017-Nov-16 09:30N 26°04' W 080°07'1 1.9
2017-Nov-16 09:00N 26°05' W 080°07'4 8.0
2017-Nov-16 08:30N 26°06' W 080°02'4 8.3
2017-Nov-16 08:00N 26°04' W 080°07'1 2.4
2017-Nov-16 07:30N 26°06' W 080°07'3 5.9
2017-Nov-16 07:01N 26°05' W 080°04'2 3.1
2017-Nov-16 06:30N 26°05' W 080°06'1 2.7
2017-Nov-16 06:00N 26°05' W 080°07'0 0.9
2017-Nov-16 05:30N 26°05' W 080°07'0 0.8
2017-Nov-16 05:00N 26°05' W 080°07'1 2.0
2017-Nov-16 04:30N 26°06' W 080°06'1 1.2
2017-Nov-16 03:27N 26°06' W 080°07'2 4.2
2017-Nov-16 03:00N 26°06' W 080°05'1 3.0
2017-Nov-16 02:30N 26°05' W 080°07'1 0.6
2017-Nov-16 01:19N 26°06' W 080°07'310.2
2017-Nov-16 01:00N 26°05' W 080°04'3 5.5
2017-Nov-16 00:30N 26°06' W 080°07'2 3.3
2017-Nov-16 00:00N 26°05' W 080°05'1 1.3
2017-Nov-15 23:30N 26°06' W 080°06'2 3.3
2017-Nov-15 23:00N 26°04' W 080°07'2 3.3
2017-Nov-15 22:30N 26°06' W 080°06'1 2.2
2017-Nov-15 22:00N 26°05' W 080°07'0 0.4
2017-Nov-15 21:30N 26°05' W 080°07'1 0.4
2017-Nov-15 19:18N 26°06' W 080°07'1 4.0
2017-Nov-15 19:00N 26°06' W 080°06'1 1.6
2017-Nov-15 18:30N 26°05' W 080°07'3 7.1
2017-Nov-15 18:01N 26°05' W 080°03'4 6.9
2017-Nov-15 17:30N 26°04' W 080°07'1 1.8
2017-Nov-15 17:00N 26°05' W 080°07'2 4.3
2017-Nov-15 16:30N 26°06' W 080°05'3 5.4
2017-Nov-15 16:01N 26°05' W 080°02'5 9.3
2017-Nov-15 15:30N 26°04' W 080°07'0 0.7
2017-Nov-15 15:00N 26°04' W 080°07'1 2.8
2017-Nov-15 14:30N 26°05' W 080°07'1 0.4
2017-Nov-15 12:17N 26°06' W 080°07'413.2
2017-Nov-15 12:00N 26°05' W 080°03'3 6.6
2017-Nov-15 11:31N 26°04' W 080°07'4 7.3
2017-Nov-15 11:00N 26°06' W 080°03'1 1.4
2017-Nov-15 10:30N 26°05' W 080°03'1 1.5
2017-Nov-15 10:00N 26°06' W 080°02'3 6.6
2017-Nov-15 09:31N 26°06' W 080°05'0 0.1
2017-Nov-15 09:00N 26°06' W 080°05'2 4.5
2017-Nov-15 08:30N 26°06' W 080°03'4 7.4
2017-Nov-15 08:00N 26°04' W 080°07'1 2.2
2017-Nov-15 07:30N 26°05' W 080°07'2 3.1
2017-Nov-15 07:00N 26°06' W 080°05'2 3.7
2017-Nov-15 06:30N 26°04' W 080°07'2 3.4
2017-Nov-15 06:00N 26°06' W 080°07'1 1.8
2017-Nov-15 05:30N 26°06' W 080°06'1 0.7
2017-Nov-15 04:31N 26°06' W 080°07'0 9.0
2017-Nov-15 04:30N 26°06' W 080°07'0 0.2
2017-Nov-15 04:00N 26°06' W 080°07'1 2.2
2017-Nov-15 03:30N 26°05' W 080°06'2 3.1
2017-Nov-15 02:59N 26°06' W 080°07'2 4.5
2017-Nov-15 02:30N 26°06' W 080°05'2 4.4
2017-Nov-15 02:00N 26°06' W 080°07'3 6.0
2017-Nov-15 01:31N 26°06' W 080°04'3 5.7
2017-Nov-15 01:00N 26°04' W 080°07'2 4.8
2017-Nov-15 00:30N 26°05' W 080°04'2 3.7
2017-Nov-15 00:00N 26°06' W 080°06'1 2.7
2017-Nov-14 23:30N 26°04' W 080°07'1 2.9
2017-Nov-14 23:00N 26°06' W 080°07'0 0.4
2017-Nov-14 22:30N 26°06' W 080°07'4 7.7
2017-Nov-14 22:00N 26°05' W 080°03'4 7.2
2017-Nov-14 21:30N 26°05' W 080°07'1 0.1
2017-Nov-14 13:23N 26°06' W 080°07'2 4.4
2017-Nov-14 13:01N 26°06' W 080°06'2 2.8
2017-Nov-14 12:26N 26°06' W 080°07'1 1.5
2017-Nov-14 12:01N 26°06' W 080°07'0 0.6
2017-Nov-14 11:31N 26°06' W 080°07'3 6.2
2017-Nov-14 11:00N 26°04' W 080°04'3 5.2
2017-Nov-14 10:30N 26°05' W 080°07'1 1.2
2017-Nov-14 10:00N 26°06' W 080°06'4 7.3
2017-Nov-14 09:30N 26°05' W 080°02'4 8.0
2017-Nov-14 09:00N 26°05' W 080°07'1 0.5
2017-Nov-14 06:25N 26°06' W 080°07'1 1.9
2017-Nov-14 06:00N 26°06' W 080°07'0 0.4
2017-Nov-14 05:30N 26°05' W 080°07'1 2.8
2017-Nov-14 05:00N 26°06' W 080°05'0 0.6
2017-Nov-14 04:30N 26°05' W 080°05'2 3.3
2017-Nov-14 04:00N 26°06' W 080°07'0 0.4
2017-Nov-14 03:30N 26°05' W 080°07'0 0.2
2017-Nov-14 03:00N 26°05' W 080°07'1 1.1
2017-Nov-14 02:30N 26°06' W 080°07'1 2.9
2017-Nov-14 02:01N 26°06' W 080°06'1 2.7
2017-Nov-14 01:30N 26°05' W 080°07'0 0.5
2017-Nov-14 01:00N 26°06' W 080°07'1 1.9
2017-Nov-14 00:30N 26°06' W 080°06'1 1.6
2017-Nov-14 00:00N 26°06' W 080°07'0 0.8
2017-Nov-13 23:30N 26°06' W 080°07'2 3.8
2017-Nov-13 23:00N 26°06' W 080°05'0 0.4
2017-Nov-13 22:30N 26°05' W 080°05'2 3.5
2017-Nov-13 22:01N 26°05' W 080°07'1 0.0
2017-Nov-12 22:35N 26°06' W 080°07'0 3.9
2017-Nov-12 22:30N 26°06' W 080°07'1 2.0
2017-Nov-12 22:00N 26°06' W 080°06'0 0.4
2017-Nov-12 21:31N 26°06' W 080°06'1 1.6
2017-Nov-12 21:01N 26°05' W 080°07'1 0.9
2017-Nov-12 19:29N 26°06' W 080°07'2 3.5
2017-Nov-12 19:01N 26°06' W 080°06'1 2.5
2017-Nov-12 18:30N 26°05' W 080°07'2 4.7
2017-Nov-12 18:01N 26°05' W 080°04'2 4.6
2017-Nov-12 17:30N 26°05' W 080°07'1 1.8
2017-Nov-12 17:00N 26°05' W 080°07'1 1.9
2017-Nov-12 16:30N 26°06' W 080°07'2 4.9
2017-Nov-12 16:00N 26°06' W 080°04'3 5.7
2017-Nov-12 15:31N 26°04' W 080°07'2 0.9
2017-Nov-12 13:31N 26°06' W 080°07'0 7.1
2017-Nov-12 13:31N 26°06' W 080°07'1 2.0
2017-Nov-12 13:00N 26°06' W 080°06'1 1.9
2017-Nov-12 12:30N 26°05' W 080°07'1 1.7
2017-Nov-12 12:00N 26°06' W 080°07'1 0.4
2017-Nov-12 10:45N 26°06' W 080°07'1 3.3
2017-Nov-12 10:30N 26°05' W 080°07'2 3.2
2017-Nov-12 10:00N 26°06' W 080°05'3 5.6
2017-Nov-12 09:30N 26°05' W 080°02'5 8.9
2017-Nov-12 09:00N 26°06' W 080°07'0 0.3
2017-Nov-12 07:35N 26°06' W 080°07'1 6.5
2017-Nov-12 07:30N 26°06' W 080°07'0 0.8
2017-Nov-12 07:00N 26°05' W 080°07'0 0.1
2017-Nov-12 06:30N 26°05' W 080°07'0 0.1
2017-Nov-12 06:00N 26°05' W 080°07'1 1.5
2017-Nov-12 05:30N 26°05' W 080°07'4 7.3
2017-Nov-12 05:00N 26°06' W 080°03'4 7.2
2017-Nov-12 04:30N 26°06' W 080°07'1 1.1
2017-Nov-12 03:58N 26°06' W 080°07'3 7.0
2017-Nov-12 03:30N 26°05' W 080°04'1 2.8
2017-Nov-12 03:00N 26°05' W 080°02'4 8.2
2017-Nov-12 02:30N 26°05' W 080°07'0 0.8
2017-Nov-12 02:00N 26°05' W 080°07'1 2.5
2017-Nov-12 01:30N 26°05' W 080°06'1 2.4
2017-Nov-12 01:01N 26°05' W 080°07'1 1.6
2017-Nov-12 00:30N 26°06' W 080°07'1 2.0
2017-Nov-12 00:00N 26°05' W 080°07'0 0.3
2017-Nov-11 23:30N 26°05' W 080°07'0 0.3
2017-Nov-11 23:00N 26°05' W 080°07'0 0.9
2017-Nov-11 22:30N 26°06' W 080°07'0 0.6
2017-Nov-11 22:00N 26°06' W 080°07'0 0.5
2017-Nov-11 21:30N 26°05' W 080°07'0 0.8
2017-Nov-11 21:00N 26°06' W 080°07'0 0.1
2017-Nov-11 12:29N 26°06' W 080°07'4 8.4
2017-Nov-11 12:00N 26°06' W 080°03'4 8.1
2017-Nov-11 11:30N 26°04' W 080°07'3 6.0
2017-Nov-11 11:00N 26°05' W 080°04'1 3.0
2017-Nov-11 10:30N 26°06' W 080°06'1 2.7
2017-Nov-11 10:00N 26°05' W 080°07'4 7.3
2017-Nov-11 09:30N 26°05' W 080°03'4 6.9
2017-Nov-11 08:59N 26°05' W 080°07'1 0.5
2017-Nov-11 06:44N 26°06' W 080°07'3 7.1
2017-Nov-11 06:15N 26°05' W 080°04'2 9.5
2017-Nov-11 06:00N 26°06' W 080°06'1 1.6
2017-Nov-11 05:30N 26°05' W 080°07'1 1.2
2017-Nov-11 05:00N 26°06' W 080°07'0 0.9
2017-Nov-11 04:30N 26°06' W 080°07'  

Dump ship's entire track history